Fairmont, Louisiana
Current Conditions -  °F | °C
As of 11:29 PM on Sunday 21 Dec 2014 (Local Time) from KAEX Reporting Station
Haze Haze  
Wind Chill: 49°   Ceiling: 200
Heat Index: 49°   Visibility: 4mi
Dew Point: 48°   Wind: 3mph
Humidity: 97%   Direction: 190°S
Pressure: 29.91"   Gusts: NA
Location:  31.503°N, 92.6476°W
Report Text: KAEX 220529Z 19003KT 4SM BR OVC002 09/09 A2991 RMK AO2 T00940089
Loading
Personal Weather Stations






























Interactive Weather Map New forecast layout! Learn more

10-Day Weather Forecast

Advertisements
Track Severe Weather on mobile